Time;durP1;ratioP1;P1;durP2;ratioP2;P2;SDS_P1;SDS_P2;PMS_P1;PMS_P2;Temp;Humidity;BMP_temperature;BMP_pressure;BME280_temperature;BME280_humidity;BME280_pressure;Samples;Min_cycle;Max_cycle;Signal;HPM_P1;HPM_P2
2022/11/27 00:00:58;;;;;;;2.40;0.70;;;14.10;99.90;;;;;;5092046;28;20067;-69
2022/11/27 00:03:25;;;;;;;2.22;0.65;;;14.10;99.90;;;;;;5091601;28;20046;-70
2022/11/27 00:05:56;;;;;;;1.98;0.80;;;14.10;99.90;;;;;;5091428;28;20028;-70
2022/11/27 00:08:24;;;;;;;3.83;0.95;;;14.10;99.90;;;;;;5091649;28;20471;-70
2022/11/27 00:10:50;;;;;;;3.50;0.90;;;14.10;99.90;;;;;;5073701;28;20035;-70
2022/11/27 00:13:19;;;;;;;2.97;0.83;;;14.10;99.90;;;;;;5091716;28;20028;-70
2022/11/27 00:15:46;;;;;;;2.38;0.65;;;14.10;99.90;;;;;;5091103;28;20180;-70
2022/11/27 00:18:16;;;;;;;1.67;0.60;;;14.10;99.90;;;;;;5090012;28;20024;-70
2022/11/27 00:20:46;;;;;;;3.08;0.77;;;14.10;99.90;;;;;;5103998;28;20047;-70
2022/11/27 00:23:12;;;;;;;4.13;0.80;;;14.20;99.90;;;;;;5111804;28;20061;-70
2022/11/27 00:25:38;;;;;;;3.10;0.70;;;14.10;99.90;;;;;;5111899;28;20019;-70
2022/11/27 00:28:04;;;;;;;;;;;14.10;99.90;;;;;;5112005;28;20023;-70
2022/11/27 00:30:30;;;;;;;2.47;0.65;;;14.20;99.90;;;;;;5111960;28;20316;-71
2022/11/27 00:32:56;;;;;;;2.43;0.60;;;14.20;99.90;;;;;;5092405;28;20044;-71
2022/11/27 00:35:22;;;;;;;3.15;0.70;;;14.20;99.90;;;;;;5089910;28;20510;-68
2022/11/27 00:37:50;;;;;;;3.13;1.07;;;14.30;99.90;;;;;;5091144;28;20535;-69
2022/11/27 00:40:16;;;;;;;1.88;0.70;;;14.30;99.90;;;;;;5108589;28;20031;-69
2022/11/27 00:42:42;;;;;;;1.70;0.60;;;14.30;99.90;;;;;;5111349;28;20068;-69
2022/11/27 00:45:08;;;;;;;1.67;0.70;;;14.30;99.90;;;;;;5111483;28;20020;-69
2022/11/27 00:47:35;;;;;;;0.60;0.40;;;14.30;99.90;;;;;;5111476;28;20016;-69
2022/11/27 00:50:03;;;;;;;;;;;14.30;99.90;;;;;;5103093;28;20502;-69
2022/11/27 00:52:29;;;;;;;1.67;0.60;;;14.40;99.90;;;;;;5091110;28;19914;-69
2022/11/27 00:54:55;;;;;;;1.70;0.53;;;14.40;99.90;;;;;;5091009;28;20115;-69
2022/11/27 00:57:21;;;;;;;1.70;0.70;;;14.40;99.90;;;;;;5089618;28;20122;-69
2022/11/27 00:59:47;;;;;;;1.03;0.50;;;14.40;99.90;;;;;;5091248;28;20469;-69
2022/11/27 01:02:16;;;;;;;1.10;0.50;;;14.40;99.90;;;;;;5091396;28;20036;-69
2022/11/27 01:04:45;;;;;;;1.40;0.53;;;14.40;99.90;;;;;;5095170;28;20012;-69
2022/11/27 01:07:12;;;;;;;1.63;0.47;;;14.40;99.90;;;;;;5110814;28;20103;-69
2022/11/27 01:09:38;;;;;;;2.20;0.60;;;14.40;99.90;;;;;;5111281;28;20063;-69
2022/11/27 01:12:05;;;;;;;2.35;0.60;;;14.40;99.90;;;;;;5110832;28;20035;-68
2022/11/27 01:14:31;;;;;;;1.65;0.50;;;14.30;99.90;;;;;;5111234;28;20020;-69
2022/11/27 01:16:58;;;;;;;1.33;0.53;;;14.30;99.90;;;;;;5105339;28;20047;-69
2022/11/27 01:19:24;;;;;;;1.52;0.50;;;14.30;99.90;;;;;;5089449;28;20396;-68
2022/11/27 01:21:50;;;;;;;3.00;0.98;;;14.30;99.90;;;;;;5090408;28;20048;-68
2022/11/27 01:24:17;;;;;;;1.70;0.60;;;14.30;99.90;;;;;;5090813;28;20069;-65
2022/11/27 01:26:44;;;;;;;1.77;0.68;;;14.20;99.90;;;;;;5103061;28;20023;-69
2022/11/27 01:29:10;;;;;;;1.48;0.60;;;14.20;99.90;;;;;;5114884;28;20047;-64
2022/11/27 01:31:38;;;;;;;1.50;0.57;;;14.30;99.90;;;;;;5114852;28;20475;-65
2022/11/27 01:34:11;;;;;;;;;;;14.30;99.90;;;;;;5115418;28;20033;-69
2022/11/27 01:36:38;;;;;;;1.65;0.50;;;14.30;99.90;;;;;;5105908;28;19908;-68
2022/11/27 01:39:05;;;;;;;2.00;0.70;;;14.30;99.90;;;;;;5113154;28;20455;-68
2022/11/27 01:41:36;;;;;;;1.65;0.50;;;14.30;99.90;;;;;;5110606;28;20107;-69
2022/11/27 01:44:23;;;;;;;1.70;0.60;;;14.30;99.90;;;;;;5109897;28;20038;-66
2022/11/27 01:47:03;;;;;;;1.88;0.60;;;14.30;99.90;;;;;;5113700;28;20034;-69
2022/11/27 01:49:54;;;;;;;3.20;0.68;;;14.30;99.90;;;;;;5114533;28;20028;-68
2022/11/27 01:52:32;;;;;;;2.28;0.57;;;14.30;99.90;;;;;;5114393;27;20016;-69
2022/11/27 01:55:21;;;;;;;2.65;0.60;;;14.30;99.90;;;;;;5114717;28;20038;-69
2022/11/27 01:57:51;;;;;;;1.92;0.70;;;14.40;99.90;;;;;;5114523;28;20015;-69
2022/11/27 02:00:21;;;;;;;2.10;0.70;;;14.30;99.90;;;;;;5114297;28;20081;-69
2022/11/27 02:02:47;;;;;;;2.38;0.47;;;14.30;99.90;;;;;;5114004;28;20095;-69
2022/11/27 02:05:21;;;;;;;1.75;0.52;;;14.30;99.90;;;;;;5110379;28;20043;-69
2022/11/27 02:07:48;;;;;;;1.55;0.40;;;14.30;99.90;;;;;;5112716;28;20067;-69
2022/11/27 02:10:15;;;;;;;1.73;0.60;;;14.30;99.90;;;;;;5113898;28;20401;-68
2022/11/27 02:12:56;;;;;;;3.80;0.70;;;14.30;99.90;;;;;;5114181;28;20408;-68
2022/11/27 02:15:44;;;;;;;1.88;0.70;;;14.30;99.90;;;;;;5107247;28;20028;-69
2022/11/27 02:18:33;;;;;;;1.27;0.45;;;14.40;99.90;;;;;;5093575;28;20381;-68
2022/11/27 02:21:12;;;;;;;2.42;0.60;;;14.50;99.90;;;;;;5104112;28;20155;-68
2022/11/27 02:23:53;;;;;;;1.83;0.52;;;14.50;99.90;;;;;;5113831;28;20047;-68
2022/11/27 02:26:51;;;;;;;1.33;0.50;;;14.50;99.90;;;;;;5113975;28;20031;-68
2022/11/27 02:29:22;;;;;;;1.90;0.50;;;14.40;99.90;;;;;;5113907;28;20031;-68
2022/11/27 02:32:12;;;;;;;1.52;0.50;;;14.50;99.90;;;;;;5112493;28;20012;-68
2022/11/27 02:35:13;;;;;;;3.33;0.70;;;14.40;99.90;;;;;;5093067;28;20388;-69
2022/11/27 02:37:45;;;;;;;1.52;0.40;;;14.40;99.90;;;;;;5093081;28;20028;-69
2022/11/27 02:40:16;;;;;;;2.05;0.70;;;14.40;99.90;;;;;;5101642;28;20154;-69
2022/11/27 02:43:04;;;;;;;1.23;0.52;;;14.40;99.90;;;;;;5113605;28;20084;-68
2022/11/27 02:45:38;;;;;;;1.48;0.60;;;14.40;99.90;;;;;;5113497;28;20327;-69
2022/11/27 02:48:06;;;;;;;2.15;0.50;;;14.40;99.90;;;;;;5113218;28;20117;-69
2022/11/27 02:50:36;;;;;;;0.77;0.40;;;14.40;99.90;;;;;;5094269;28;20067;-68
2022/11/27 02:53:07;;;;;;;1.70;0.50;;;14.40;99.90;;;;;;5092955;28;20048;-69
2022/11/27 02:55:35;;;;;;;3.03;0.50;;;14.40;99.90;;;;;;5092831;28;20032;-68
2022/11/27 02:58:04;;;;;;;1.58;0.60;;;14.40;99.90;;;;;;5092377;28;20047;-69
2022/11/27 03:00:33;;;;;;;1.38;0.68;;;14.40;99.90;;;;;;5092769;28;20448;-69
2022/11/27 03:03:04;;;;;;;1.42;0.45;;;14.40;99.90;;;;;;5092330;28;20091;-68
2022/11/27 03:05:34;;;;;;;0.85;0.45;;;14.40;99.90;;;;;;5092817;28;20076;-68
2022/11/27 03:08:08;;;;;;;1.50;0.60;;;14.50;99.90;;;;;;5092477;28;20113;-69
2022/11/27 03:11:05;;;;;;;1.60;0.60;;;14.40;99.90;;;;;;5092322;28;20020;-69
2022/11/27 03:13:42;;;;;;;2.95;0.65;;;14.50;99.90;;;;;;5092396;28;20418;-69
2022/11/27 03:16:16;;;;;;;1.83;0.60;;;14.50;99.90;;;;;;5092383;28;20053;-69
2022/11/27 03:18:59;;;;;;;2.72;0.70;;;14.50;99.90;;;;;;5093643;28;20012;-69
2022/11/27 03:21:38;;;;;;;1.23;0.60;;;14.50;99.90;;;;;;5112308;28;20077;-69
2022/11/27 03:24:09;;;;;;;2.00;0.63;;;14.50;99.90;;;;;;5112879;28;20027;-70
2022/11/27 03:26:36;;;;;;;1.48;0.60;;;14.50;99.90;;;;;;5112669;28;20069;-69
2022/11/27 03:29:09;;;;;;;1.52;0.60;;;14.50;99.90;;;;;;5112673;28;20020;-70
2022/11/27 03:31:36;;;;;;;1.30;0.52;;;14.50;99.90;;;;;;5112544;28;20039;-69
2022/11/27 03:34:03;;;;;;;2.72;0.68;;;14.50;99.90;;;;;;5112505;28;20019;-69
2022/11/27 03:36:29;;;;;;;;;;;14.50;99.90;;;;;;5112802;28;20050;-69
2022/11/27 03:38:59;;;;;;;0.80;0.52;;;14.50;99.90;;;;;;5112485;28;19904;-69
2022/11/27 03:41:49;;;;;;;1.45;0.55;;;14.50;99.90;;;;;;5112376;28;20027;-69
2022/11/27 03:44:31;;;;;;;0.93;0.50;;;14.60;99.90;;;;;;5112473;28;20046;-69
2022/11/27 03:47:28;;;;;;;0.85;0.50;;;14.50;99.90;;;;;;5112371;28;20054;-69
2022/11/27 03:50:05;;;;;;;1.15;0.43;;;14.60;99.90;;;;;;5111785;28;20123;-69
2022/11/27 03:53:07;;;;;;;1.98;0.65;;;14.60;99.90;;;;;;5110661;28;20129;-69
2022/11/27 03:55:36;;;;;;;1.17;0.50;;;14.60;99.90;;;;;;5110439;28;20032;-69
2022/11/27 03:58:19;;;;;;;3.00;0.52;;;14.70;99.90;;;;;;5112154;28;20019;-68
2022/11/27 04:00:49;;;;;;;2.67;0.40;;;14.70;99.90;;;;;;5111930;28;20394;-69
2022/11/27 04:03:26;;;;;;;6.53;0.85;;;14.70;99.90;;;;;;5110414;28;20032;-71
2022/11/27 04:05:52;;;;;;;1.70;0.70;;;14.70;99.90;;;;;;5111955;28;20028;-69
2022/11/27 04:08:19;;;;;;;3.20;0.73;;;14.70;99.90;;;;;;5111533;28;20016;-69
2022/11/27 04:10:45;;;;;;;3.35;0.73;;;14.70;99.90;;;;;;5111729;28;20024;-69
2022/11/27 04:13:12;;;;;;;2.40;0.70;;;14.80;99.90;;;;;;5111864;28;20376;-69
2022/11/27 04:15:38;;;;;;;3.25;1.42;;;14.80;99.90;;;;;;5111804;28;20030;-69
2022/11/27 04:18:04;;;;;;;1.70;0.50;;;14.80;99.90;;;;;;5111679;28;20118;-69
2022/11/27 04:20:30;;;;;;;2.20;0.60;;;14.70;99.90;;;;;;5109795;28;20233;-69
2022/11/27 04:22:56;;;;;;;3.75;0.82;;;14.80;99.90;;;;;;5111536;28;20016;-69
2022/11/27 04:25:22;;;;;;;2.10;0.63;;;14.70;99.90;;;;;;5111881;28;20030;-70
2022/11/27 04:27:49;;;;;;;3.47;0.80;;;14.80;99.90;;;;;;5110212;28;20062;-69
2022/11/27 04:30:16;;;;;;;3.92;0.80;;;14.70;99.90;;;;;;5111911;28;20261;-70
2022/11/27 04:32:43;;;;;;;;;;;14.80;99.90;;;;;;5112396;28;20479;-70
2022/11/27 04:35:09;;;;;;;0.80;0.40;;;14.80;99.90;;;;;;5111466;28;19918;-70
2022/11/27 04:37:35;;;;;;;2.42;0.60;;;14.80;99.90;;;;;;5111709;28;20061;-70
2022/11/27 04:40:03;;;;;;;1.67;0.50;;;14.70;99.90;;;;;;5111340;28;20054;-70
2022/11/27 04:42:31;;;;;;;2.55;0.70;;;14.80;99.90;;;;;;5109845;28;20088;-68
2022/11/27 04:44:57;;;;;;;3.60;0.82;;;14.80;99.90;;;;;;5111686;28;20132;-70
2022/11/27 04:47:23;;;;;;;2.20;0.60;;;14.80;99.90;;;;;;5110188;28;20518;-70
2022/11/27 04:49:49;;;;;;;3.80;0.60;;;14.80;99.90;;;;;;5111695;28;20028;-68
2022/11/27 04:52:17;;;;;;;1.70;0.50;;;14.80;99.90;;;;;;5111356;28;20019;-70
2022/11/27 04:54:44;;;;;;;3.30;0.50;;;14.80;99.90;;;;;;5111287;28;20027;-70
2022/11/27 04:57:10;;;;;;;3.17;0.55;;;14.90;99.90;;;;;;5111161;28;20445;-70
2022/11/27 04:59:37;;;;;;;1.77;0.50;;;14.90;99.90;;;;;;5111110;28;20031;-70
2022/11/27 05:02:03;;;;;;;;;;;14.90;99.90;;;;;;5112665;28;20895;-69
2022/11/27 05:04:33;;;;;;;1.17;0.40;;;15.00;99.90;;;;;;5115497;28;20006;-70
2022/11/27 05:07:00;;;;;;;2.35;0.60;;;14.90;99.90;;;;;;5115572;28;20027;-69
2022/11/27 05:09:26;;;;;;;2.97;0.60;;;14.90;99.90;;;;;;5115236;28;20032;-70
2022/11/27 05:11:52;;;;;;;2.80;0.70;;;14.90;99.90;;;;;;5114100;28;20023;-69
2022/11/27 05:14:19;;;;;;;1.88;0.57;;;14.80;99.90;;;;;;5115343;28;20111;-71
2022/11/27 05:16:47;;;;;;;5.35;0.60;;;14.90;99.90;;;;;;5115272;28;20495;-70
2022/11/27 05:19:14;;;;;;;4.72;0.88;;;14.90;99.90;;;;;;5114843;28;20383;-69
2022/11/27 05:21:50;;;;;;;1.38;0.50;;;14.80;99.90;;;;;;5114785;28;20074;-69
2022/11/27 05:24:18;;;;;;;2.33;0.50;;;14.80;99.90;;;;;;5113409;28;20043;-69
2022/11/27 05:26:45;;;;;;;2.28;0.60;;;14.80;99.90;;;;;;5114880;28;20019;-69
2022/11/27 05:29:13;;;;;;;;;;;14.80;99.90;;;;;;5115320;27;20054;-69
2022/11/27 05:31:40;;;;;;;2.17;0.70;;;14.70;99.90;;;;;;5114736;28;19912;-69
2022/11/27 05:34:06;;;;;;;4.22;0.95;;;14.80;99.90;;;;;;5114154;28;20426;-65
2022/11/27 05:36:33;;;;;;;2.13;0.50;;;14.70;99.90;;;;;;5114772;28;20023;-69
2022/11/27 05:39:02;;;;;;;4.70;0.70;;;14.80;99.90;;;;;;5114364;28;20464;-70
2022/11/27 05:41:31;;;;;;;4.13;0.80;;;14.80;99.90;;;;;;5114782;28;20367;-70
2022/11/27 05:43:59;;;;;;;2.92;0.88;;;14.80;99.90;;;;;;5113065;28;20061;-65
2022/11/27 05:46:25;;;;;;;3.40;0.80;;;14.80;99.90;;;;;;5105688;28;20096;-68
2022/11/27 05:48:51;;;;;;;2.45;0.70;;;14.80;99.90;;;;;;5113645;28;20015;-64
2022/11/27 05:51:20;;;;;;;4.47;0.80;;;14.80;99.90;;;;;;5113906;28;20387;-66
2022/11/27 05:53:47;;;;;;;3.80;0.70;;;14.70;99.90;;;;;;5111395;28;20031;-71
2022/11/27 05:56:15;;;;;;;5.32;0.70;;;14.70;99.90;;;;;;5112963;28;20023;-69
2022/11/27 05:58:45;;;;;;;2.72;0.70;;;14.70;99.90;;;;;;5113075;28;20035;-69
2022/11/27 06:01:15;;;;;;;3.97;0.88;;;14.70;99.90;;;;;;5114091;27;20035;-70
2022/11/27 06:03:41;;;;;;;2.28;0.52;;;14.70;99.90;;;;;;5113752;27;20024;-70
2022/11/27 06:06:13;;;;;;;4.30;0.70;;;14.70;99.90;;;;;;5105826;28;20024;-69
2022/11/27 06:08:41;;;;;;;1.33;0.50;;;14.80;99.90;;;;;;5105463;28;20031;-70
2022/11/27 06:11:09;;;;;;;2.35;0.65;;;14.90;99.90;;;;;;5093757;28;20028;-67
2022/11/27 06:13:36;;;;;;;2.42;0.60;;;14.90;99.90;;;;;;5103989;28;20050;-65
2022/11/27 06:16:11;;;;;;;2.95;0.60;;;14.90;99.90;;;;;;5103921;28;20027;-65
2022/11/27 06:18:39;;;;;;;2.92;0.77;;;14.80;99.90;;;;;;5107962;28;20100;-70
2022/11/27 06:21:10;;;;;;;4.75;0.80;;;14.80;99.90;;;;;;5110892;28;20241;-69
2022/11/27 06:23:36;;;;;;;3.30;0.77;;;14.80;99.90;;;;;;5113994;28;20024;-70
2022/11/27 06:26:16;;;;;;;3.88;0.90;;;14.80;99.90;;;;;;5113722;28;20024;-70
2022/11/27 06:28:43;;;;;;;4.53;1.05;;;14.80;99.90;;;;;;5107319;28;20375;-70
2022/11/27 06:31:12;;;;;;;5.63;1.10;;;14.90;99.90;;;;;;5111170;28;20031;-68
2022/11/27 06:33:38;;;;;;;4.82;1.05;;;15.00;99.90;;;;;;5107429;28;20059;-68
2022/11/27 06:36:05;;;;;;;7.35;1.08;;;15.10;99.90;;;;;;5112521;28;20028;-68
2022/11/27 06:38:32;;;;;;;;;;;15.20;99.90;;;;;;5113619;28;20024;-68
2022/11/27 06:41:07;;;;;;;3.75;0.80;;;15.20;99.90;;;;;;5113029;28;19980;-68
2022/11/27 06:43:35;;;;;;;4.78;1.10;;;15.20;99.90;;;;;;5100505;28;20103;-73
2022/11/27 06:46:02;;;;;;;3.35;1.02;;;15.30;99.90;;;;;;5092884;28;20044;-68
2022/11/27 06:48:29;;;;;;;3.90;1.00;;;15.40;99.90;;;;;;5092565;28;20118;-69
2022/11/27 06:51:05;;;;;;;4.82;0.80;;;15.60;99.90;;;;;;5092195;28;20035;-68
2022/11/27 06:53:33;;;;;;;7.10;1.52;;;15.60;99.90;;;;;;5101549;28;20043;-69
2022/11/27 06:56:02;;;;;;;5.68;1.17;;;15.70;99.90;;;;;;5112343;28;20556;-69
2022/11/27 06:58:28;;;;;;;7.18;1.10;;;15.70;99.90;;;;;;5111567;28;20495;-69
2022/11/27 07:00:59;;;;;;;4.97;1.50;;;15.80;99.90;;;;;;5112590;28;20503;-69
2022/11/27 07:03:25;;;;;;;8.10;1.20;;;15.90;99.90;;;;;;5112696;28;20779;-69
2022/11/27 07:05:52;;;;;;;5.10;1.23;;;16.20;99.90;;;;;;5112628;28;20042;-69
2022/11/27 07:08:18;;;;;;;9.82;1.40;;;16.40;99.90;;;;;;5112737;28;20027;-69
2022/11/27 07:10:45;;;;;;;2.95;0.90;;;16.60;99.90;;;;;;5112670;28;20035;-69
2022/11/27 07:13:11;;;;;;;1.98;0.73;;;16.40;99.90;;;;;;5110945;28;20038;-68
2022/11/27 07:15:37;;;;;;;4.53;1.05;;;16.30;99.90;;;;;;5110676;28;20031;-69
2022/11/27 07:18:04;;;;;;;4.77;1.10;;;16.20;99.90;;;;;;5113411;28;20038;-68
2022/11/27 07:20:31;;;;;;;;;;;16.10;99.90;;;;;;5113076;28;20388;-68
2022/11/27 07:22:57;;;;;;;;;;;16.00;99.90;;;;;;5113319;28;20461;-69
2022/11/27 07:25:25;;;;;;;3.03;0.82;;;15.90;99.90;;;;;;5112671;28;19986;-68
2022/11/27 07:27:51;;;;;;;4.28;0.93;;;15.80;99.90;;;;;;5112774;28;20023;-68
2022/11/27 07:30:17;;;;;;;2.13;0.70;;;15.80;99.90;;;;;;5112825;28;20027;-69
2022/11/27 07:32:43;;;;;;;2.35;0.60;;;15.70;99.90;;;;;;5112767;28;20023;-69
2022/11/27 07:35:11;;;;;;;4.43;1.10;;;15.70;99.90;;;;;;5113107;28;20027;-69
2022/11/27 07:37:38;;;;;;;3.55;1.35;;;15.70;99.90;;;;;;5113213;28;20102;-70
2022/11/27 07:40:06;;;;;;;4.07;0.80;;;15.80;99.90;;;;;;5112407;28;20042;-69
2022/11/27 07:42:32;;;;;;;2.35;0.80;;;15.80;99.90;;;;;;5112642;28;20023;-69
2022/11/27 07:44:59;;;;;;;3.78;0.73;;;15.80;99.90;;;;;;5112844;28;20055;-69
2022/11/27 07:47:25;;;;;;;;;;;15.80;99.90;;;;;;5113471;28;20065;-69
2022/11/27 07:49:53;;;;;;;8.38;1.35;;;16.00;99.90;;;;;;5112462;28;19903;-69
2022/11/27 07:52:20;;;;;;;2.85;0.98;;;16.10;99.90;;;;;;5112450;28;20180;-69
2022/11/27 07:54:47;;;;;;;3.85;0.90;;;16.50;99.90;;;;;;5112432;28;20115;-69
2022/11/27 07:57:14;;;;;;;3.88;0.80;;;16.80;99.90;;;;;;5112799;28;20031;-69
2022/11/27 07:59:41;;;;;;;2.38;0.70;;;17.00;99.90;;;;;;5112806;28;20035;-69
2022/11/27 08:02:11;;;;;;;3.63;0.80;;;17.10;99.90;;;;;;5113265;28;20445;-69
2022/11/27 08:04:38;;;;;;;1.60;0.50;;;17.40;99.90;;;;;;5094216;28;20027;-69
2022/11/27 08:07:04;;;;;;;1.85;0.63;;;17.50;99.90;;;;;;5112689;28;20102;-69
2022/11/27 08:09:32;;;;;;;3.40;0.88;;;17.40;99.90;;;;;;5110906;28;20035;-68
2022/11/27 08:11:58;;;;;;;2.97;1.00;;;17.30;99.90;;;;;;5112640;28;20020;-69
2022/11/27 08:14:25;;;;;;;1.27;0.50;;;17.30;99.90;;;;;;5112107;28;20123;-69
2022/11/27 08:16:51;;;;;;;3.33;0.80;;;17.30;99.90;;;;;;5112225;28;20473;-69
2022/11/27 08:19:18;;;;;;;3.00;0.98;;;17.20;99.90;;;;;;5110703;28;20043;-68
2022/11/27 08:21:45;;;;;;;4.32;0.80;;;17.10;99.90;;;;;;5112034;28;20040;-69
2022/11/27 08:24:11;;;;;;;3.63;0.90;;;17.00;99.90;;;;;;5112150;28;20041;-69
2022/11/27 08:26:37;;;;;;;;;;;17.10;99.90;;;;;;5112822;28;20463;-69
2022/11/27 08:29:05;;;;;;;3.67;1.00;;;17.30;99.90;;;;;;5112635;28;19911;-69
2022/11/27 08:31:34;;;;;;;3.30;0.80;;;17.50;99.90;;;;;;5112381;28;20031;-69
2022/11/27 08:34:03;;;;;;;6.05;1.10;;;17.50;99.90;;;;;;5111873;28;20028;-69
2022/11/27 08:36:29;;;;;;;2.65;0.85;;;17.60;99.90;;;;;;5113489;28;20037;-70
2022/11/27 08:38:56;;;;;;;2.53;0.73;;;17.70;99.90;;;;;;5115720;28;20072;-69
2022/11/27 08:41:22;;;;;;;3.78;0.90;;;17.80;99.90;;;;;;5113935;28;20035;-69
2022/11/27 08:43:48;;;;;;;3.15;0.90;;;17.80;99.90;;;;;;5113775;28;20463;-70
2022/11/27 08:46:15;;;;;;;5.72;1.10;;;17.80;99.90;;;;;;5115059;28;20047;-69
2022/11/27 08:48:41;;;;;;;3.25;0.80;;;17.70;99.90;;;;;;5114058;28;20111;-70
2022/11/27 08:51:09;;;;;;;2.90;1.08;;;18.00;99.90;;;;;;5114563;28;20533;-70
2022/11/27 08:53:36;;;;;;;4.80;0.90;;;17.90;99.90;;;;;;5115353;28;20032;-70
2022/11/27 08:56:06;;;;;;;;;;;17.80;99.90;;;;;;5116106;28;20016;-70
2022/11/27 08:58:34;;;;;;;5.07;1.15;;;17.80;99.90;;;;;;5115468;28;19986;-69
2022/11/27 09:01:12;;;;;;;7.80;1.25;;;17.90;99.90;;;;;;5115073;28;20144;-69
2022/11/27 09:03:38;;;;;;;3.45;1.00;;;18.00;99.90;;;;;;5115412;28;20054;-70
2022/11/27 09:06:10;;;;;;;3.65;1.10;;;18.10;99.90;;;;;;5114068;28;20132;-70
2022/11/27 09:08:40;;;;;;;2.97;0.80;;;18.10;99.90;;;;;;5114625;28;20028;-70
2022/11/27 09:11:07;;;;;;;5.20;1.10;;;18.00;99.90;;;;;;5115360;28;20032;-70
2022/11/27 09:13:35;;;;;;;5.00;1.05;;;17.90;99.90;;;;;;5115156;28;20106;-69
2022/11/27 09:16:03;;;;;;;3.50;1.30;;;17.90;99.90;;;;;;5115529;28;20047;-70
2022/11/27 09:18:30;;;;;;;5.15;1.10;;;17.80;99.90;;;;;;5116160;28;20027;-67
2022/11/27 09:21:00;;;;;;;;;;;17.70;99.90;;;;;;5116677;28;20491;-70
2022/11/27 09:23:28;;;;;;;3.00;0.77;;;17.60;99.90;;;;;;5116078;28;19986;-70
2022/11/27 09:25:58;;;;;;;3.50;0.90;;;17.60;99.90;;;;;;5116256;28;20110;-69
2022/11/27 09:28:24;;;;;;;3.97;1.00;;;17.60;99.90;;;;;;5116976;28;20126;-70
2022/11/27 09:30:57;;;;;;;3.45;0.98;;;17.60;99.90;;;;;;5116674;28;20038;-70
2022/11/27 09:33:26;;;;;;;6.72;1.23;;;17.60;99.90;;;;;;5116270;28;20024;-70
2022/11/27 09:35:52;;;;;;;4.50;1.50;;;17.60;99.90;;;;;;5116605;28;20491;-70
2022/11/27 09:38:18;;;;;;;2.00;0.90;;;17.80;99.90;;;;;;5116593;28;20024;-70
2022/11/27 09:40:49;;;;;;;4.15;1.20;;;18.00;99.90;;;;;;5115903;28;20073;-70
2022/11/27 09:43:18;;;;;;;8.50;1.77;;;18.00;99.90;;;;;;5115949;27;20062;-70
2022/11/27 09:45:51;;;;;;;3.58;1.05;;;18.00;99.90;;;;;;5116452;28;20019;-70
2022/11/27 09:48:52;;;;;;;2.97;0.90;;;18.00;99.90;;;;;;5115376;28;20020;-70
2022/11/27 09:51:33;;;;;;;3.95;1.10;;;17.90;99.90;;;;;;5053055;28;20032;-71
2022/11/27 09:54:14;;;;;;;16.88;1.98;;;17.80;99.90;;;;;;5035606;28;20033;-70
2022/11/27 09:56:44;;;;;;;4.28;1.40;;;17.80;99.90;;;;;;5052702;28;20025;-69
2022/11/27 09:59:17;;;;;;;2.65;1.00;;;17.60;99.90;;;;;;5052454;28;20044;-70
2022/11/27 10:01:44;;;;;;;3.45;1.08;;;17.50;99.90;;;;;;5052596;28;20058;-70
2022/11/27 10:04:15;;;;;;;1.85;0.90;;;17.50;99.90;;;;;;5052600;28;20062;-68
2022/11/27 10:06:58;;;;;;;4.30;1.20;;;17.40;99.90;;;;;;5052498;28;20158;-68
2022/11/27 10:09:30;;;;;;;4.07;1.20;;;17.30;99.90;;;;;;5035540;28;20032;-68
2022/11/27 10:12:08;;;;;;;5.05;1.30;;;17.30;99.90;;;;;;5052204;28;20063;-68
2022/11/27 10:15:00;;;;;;;3.53;1.02;;;17.40;99.90;;;;;;5052212;28;20319;-68
2022/11/27 10:17:32;;;;;;;1.90;0.80;;;17.40;99.90;;;;;;5052326;28;20449;-66
2022/11/27 10:20:28;;;;;;;3.80;1.30;;;17.40;99.90;;;;;;5051825;28;20049;-68
2022/11/27 10:23:27;;;;;;;2.58;1.00;;;17.40;99.90;;;;;;5024533;28;20127;-68
2022/11/27 10:26:27;;;;;;;4.60;1.15;;;17.40;99.90;;;;;;5055019;28;20080;-68
2022/11/27 10:29:16;;;;;;;7.03;1.40;;;17.60;99.90;;;;;;5093341;28;20077;-68
2022/11/27 10:31:56;;;;;;;3.10;0.88;;;17.60;99.90;;;;;;5083001;28;20392;-68
2022/11/27 10:34:51;;;;;;;3.83;0.73;;;17.70;99.90;;;;;;5094468;28;20057;-69
2022/11/27 10:37:24;;;;;;;5.13;1.00;;;17.60;99.90;;;;;;5107219;28;20388;-68
2022/11/27 10:39:55;;;;;;;7.70;1.10;;;17.50;99.90;;;;;;5094288;28;20484;-68
2022/11/27 10:42:39;;;;;;;1.73;0.70;;;17.50;99.90;;;;;;5094654;28;20059;-67
2022/11/27 10:45:16;;;;;;;7.93;1.10;;;17.40;99.90;;;;;;5094609;28;20036;-68
2022/11/27 10:47:45;;;;;;;1.48;0.68;;;17.50;99.90;;;;;;5094067;28;20108;-69
2022/11/27 10:50:19;;;;;;;3.25;0.90;;;17.50;99.90;;;;;;5094370;28;20031;-69
2022/11/27 10:52:59;;;;;;;4.85;0.82;;;17.40;99.90;;;;;;5094084;28;20023;-67
2022/11/27 10:56:08;;;;;;;4.20;0.70;;;17.50;99.90;;;;;;5094033;28;20020;-68
2022/11/27 10:58:56;;;;;;;2.95;0.88;;;17.50;99.90;;;;;;5091993;28;20376;-68
2022/11/27 11:01:25;;;;;;;7.75;1.00;;;17.50;99.90;;;;;;5093328;28;20067;-69
2022/11/27 11:04:10;;;;;;;3.33;0.93;;;17.40;99.90;;;;;;5093633;28;20032;-68
2022/11/27 11:06:45;;;;;;;2.25;0.77;;;17.40;99.90;;;;;;5093761;28;20024;-68
2022/11/27 11:09:27;;;;;;;4.88;1.10;;;17.30;99.90;;;;;;5092418;28;20036;-68
2022/11/27 11:12:05;;;;;;;3.03;0.80;;;17.40;99.90;;;;;;5093752;28;20016;-68
2022/11/27 11:14:32;;;;;;;5.28;0.98;;;17.30;99.90;;;;;;5093342;28;20039;-68
2022/11/27 11:16:58;;;;;;;2.85;1.05;;;17.30;99.90;;;;;;5093789;28;20028;-68
2022/11/27 11:19:30;;;;;;;3.38;1.10;;;17.30;99.90;;;;;;5093457;28;20095;-67
2022/11/27 11:21:58;;;;;;;3.40;0.90;;;17.30;99.90;;;;;;5093239;28;20044;-68
2022/11/27 11:24:30;;;;;;;4.05;1.27;;;17.30;99.90;;;;;;5094070;28;20063;-69
2022/11/27 11:27:00;;;;;;;2.47;0.75;;;17.30;99.90;;;;;;5093812;28;20028;-69
2022/11/27 11:29:45;;;;;;;5.65;1.23;;;17.20;99.90;;;;;;5093519;28;20031;-69
2022/11/27 11:32:20;;;;;;;2.30;0.60;;;17.20;99.90;;;;;;5093793;28;20024;-67
2022/11/27 11:34:58;;;;;;;2.75;1.00;;;17.20;99.90;;;;;;5091785;28;20349;-67
2022/11/27 11:37:33;;;;;;;2.13;0.70;;;17.20;99.90;;;;;;5093182;28;20089;-67
2022/11/27 11:40:29;;;;;;;1.30;0.70;;;17.10;99.90;;;;;;5093274;28;20062;-63
2022/11/27 11:43:01;;;;;;;4.40;0.90;;;17.10;99.90;;;;;;5090846;28;20040;-63
2022/11/27 11:45:30;;;;;;;5.22;2.55;;;17.00;99.90;;;;;;5091711;28;20119;-63
2022/11/27 11:48:01;;;;;;;2.53;0.77;;;17.00;99.90;;;;;;5091857;28;20032;-67
2022/11/27 11:50:39;;;;;;;1.95;0.50;;;16.90;99.90;;;;;;5107745;28;20057;-67
2022/11/27 11:53:34;;;;;;;3.05;1.05;;;16.90;99.90;;;;;;5111959;28;20027;-67
2022/11/27 11:56:05;;;;;;;2.95;0.85;;;17.00;99.90;;;;;;5113640;28;20091;-65
2022/11/27 11:58:51;;;;;;;3.53;1.00;;;17.10;99.90;;;;;;5111639;28;20387;-68
2022/11/27 12:01:40;;;;;;;3.50;0.90;;;17.10;99.90;;;;;;5112829;28;20043;-68
2022/11/27 12:04:42;;;;;;;3.08;0.90;;;17.20;99.90;;;;;;5113332;28;20043;-68
2022/11/27 12:07:26;;;;;;;5.20;0.70;;;17.20;99.90;;;;;;5113300;28;20028;-68
2022/11/27 12:10:04;;;;;;;1.60;0.70;;;17.30;99.90;;;;;;5111394;28;20123;-68
2022/11/27 12:12:52;;;;;;;1.10;0.60;;;17.20;99.90;;;;;;5112853;28;20027;-68
2022/11/27 12:15:37;;;;;;;3.30;0.93;;;17.20;99.90;;;;;;5113115;28;20376;-68
2022/11/27 12:18:45;;;;;;;3.67;0.73;;;17.20;99.90;;;;;;5112303;28;20039;-68
2022/11/27 12:21:23;;;;;;;1.38;0.57;;;17.30;99.90;;;;;;5111969;28;20438;-68
2022/11/27 12:24:10;;;;;;;1.45;0.50;;;17.30;99.90;;;;;;5112625;28;20059;-68
2022/11/27 12:27:19;;;;;;;0.95;0.40;;;17.30;99.90;;;;;;5113138;28;20380;-69
2022/11/27 12:29:57;;;;;;;5.18;0.70;;;17.30;99.90;;;;;;5112666;28;20016;-64
2022/11/27 12:32:40;;;;;;;3.45;1.00;;;17.40;99.90;;;;;;5112734;28;20032;-68
2022/11/27 12:35:22;;;;;;;4.10;1.10;;;17.30;99.90;;;;;;5112777;28;20557;-68
2022/11/27 12:37:50;;;;;;;5.28;1.08;;;17.30;99.90;;;;;;5111043;28;20024;-68
2022/11/27 12:40:55;;;;;;;3.63;1.10;;;17.10;99.90;;;;;;5112419;28;20032;-67
2022/11/27 12:43:25;;;;;;;2.92;0.82;;;16.90;99.90;;;;;;5112893;28;20059;-66
2022/11/27 12:46:20;;;;;;;4.05;0.90;;;16.90;99.90;;;;;;5112304;28;20605;-66
2022/11/27 12:48:51;;;;;;;3.58;1.15;;;16.80;99.90;;;;;;5112627;28;20065;-67
2022/11/27 12:51:43;;;;;;;4.57;1.02;;;16.70;99.90;;;;;;5112990;28;20506;-67
2022/11/27 12:54:40;;;;;;;6.32;1.30;;;16.70;99.90;;;;;;5112667;28;20106;-67
2022/11/27 12:57:17;;;;;;;5.13;1.17;;;16.70;99.90;;;;;;5108348;28;20032;-68
2022/11/27 12:59:52;;;;;;;3.40;0.90;;;16.60;99.90;;;;;;5111982;28;20145;-67
2022/11/27 13:02:25;;;;;;;3.67;0.85;;;16.70;99.90;;;;;;5112866;28;20042;-67
2022/11/27 13:05:06;;;;;;;3.90;1.30;;;16.70;99.90;;;;;;5110843;28;20130;-67
2022/11/27 13:07:56;;;;;;;4.25;0.90;;;16.50;99.90;;;;;;5112823;28;20030;-67
2022/11/27 13:10:38;;;;;;;4.78;1.10;;;16.40;99.90;;;;;;5111724;28;20063;-68
2022/11/27 13:13:10;;;;;;;3.30;0.95;;;16.20;99.90;;;;;;5112538;28;20458;-67
2022/11/27 13:15:41;;;;;;;3.97;0.93;;;16.20;99.90;;;;;;5112625;28;20468;-67
2022/11/27 13:18:32;;;;;;;2.53;0.90;;;16.10;99.90;;;;;;5112456;28;20073;-68